Avioradar koristi kolačiće da bi Vam omogućio jednostavnije i ugodnije korištenje stranice. 

AVIORADAR - Croatian aviation website

METAR & TAF

[Source: ADDS]
METAR
LDZA 230000Z 00000KT 0800 R04/0700U R22/0800U BCFG FEW003 14/13 Q1012 TEMPO 0400 FG VV002 =
LDZA 222325Z 2300/2400 VRB02KT CAVOK TX24/2312Z TN12/2305Z TEMPO 2300/2307 3000 BCFG BKN003 PROB30 TEMPO 2300/2307 0400 FG VV002 PROB40 TEMPO 2312/2318 TSRA FEW030CB LDSP 230000Z AUTO 35006KT 300V020 9999 VCTS -SHRA FEW048/// OVC076/// 18/16 Q1013 RESHRA =
LDSP 222325Z 2300/2400 12008KT 9999 BKN045 TX25/2312Z TN17/2300Z PROB40 TEMPO 2300/2400 TSRA FEW020CB BKN030 PROB30 TEMPO 2300/2310 23015G25KT 2000 +TSRA SCT020CB BKN030 LDDU 230000Z 02012KT 320V070 9999 FEW046 SCT072 20/16 Q1014 =
LDDU 222325Z 2300/2400 12008KT 9999 SCT020 TX25/2314Z TN18/2305Z TEMPO 2300/2400 02015KT 4000 TSRA FEW020CB BKN030 PROB30 TEMPO 2300/2315 12015G25KT 1500 +TSRA SCT020CB BKN030 LDPL 230000Z 07005KT 040V100 9999 FEW020 17/16 Q1011 =
LDPL 222325Z 2300/2400 09005KT 9999 SCT020 TX23/2312Z TN16/2303Z TEMPO 2300/2400 3000 TSRA SCT020CB BKN030 PROB30 TEMPO 2300/2308 BKN007 TEMPO 2310/2318 24007KT PROB40 TEMPO 2317/2400 VRB15KT 1500 +TSRA SCT020CB BKN030 LDZD 230000Z 14004KT 9999 FEW030 16/15 Q1013 =
LDZD 222325Z 2300/2400 12004KT 9999 SCT030 TX24/2312Z TN15/2305Z TEMPO 2300/2400 TSRA FEW020CB BKN030 PROB30 TEMPO 2302/2310 2000 +TSRA SCT020CB BKN030 LDRI 230000Z 10003KT 070V170 9999 -RA VCTS FEW020CB OVC025 17/16 Q1012 RETSRA =
LDRI 222325Z 2300/2400 12008KT CAVOK TX22/2313Z TN16/2306Z TEMPO 2300/2400 4000 TSRA FEW020CB BKN030 PROB30 TEMPO 2300/2314 26015KT 2000 +TSRA BKN007 SCT020CB BKN030 BECMG 2310/2312 VRB02KT TEMPO 2321/2400 12008KT LDOS 230000Z 11005KT CAVOK 14/11 Q1012 =
LDOS 222325Z 2300/2400 VRB02KT CAVOK TX27/2312Z TN13/2304Z PROB30 TEMPO 2315/2318 SHRA FEW040TCU SCT045
TAF
LDZA 222325Z 2300/2400 VRB02KT CAVOK TX24/2312Z TN12/2305Z TEMPO 2300/2307 3000 BCFG BKN003 PROB30 TEMPO 2300/2307 0400 FG VV002 PROB40 TEMPO 2312/2318 TSRA FEW030CB =
LDSP 222325Z 2300/2400 12008KT 9999 BKN045 TX25/2312Z TN17/2300Z PROB40 TEMPO 2300/2400 TSRA FEW020CB BKN030 PROB30 TEMPO 2300/2310 23015G25KT 2000 +TSRA SCT020CB BKN030 =
LDDU 222325Z 2300/2400 12008KT 9999 SCT020 TX25/2314Z TN18/2305Z TEMPO 2300/2400 02015KT 4000 TSRA FEW020CB BKN030 PROB30 TEMPO 2300/2315 12015G25KT 1500 +TSRA SCT020CB BKN030 =
LDPL 222325Z 2300/2400 09005KT 9999 SCT020 TX23/2312Z TN16/2303Z TEMPO 2300/2400 3000 TSRA SCT020CB BKN030 PROB30 TEMPO 2300/2308 BKN007 TEMPO 2310/2318 24007KT PROB40 TEMPO 2317/2400 VRB15KT 1500 +TSRA SCT020CB BKN030 =
LDZD 222325Z 2300/2400 12004KT 9999 SCT030 TX24/2312Z TN15/2305Z TEMPO 2300/2400 TSRA FEW020CB BKN030 PROB30 TEMPO 2302/2310 2000 +TSRA SCT020CB BKN030 =
LDRI 222325Z 2300/2400 12008KT CAVOK TX22/2313Z TN16/2306Z TEMPO 2300/2400 4000 TSRA FEW020CB BKN030 PROB30 TEMPO 2300/2314 26015KT 2000 +TSRA BKN007 SCT020CB BKN030 BECMG 2310/2312 VRB02KT TEMPO 2321/2400 12008KT =
LDOS 222325Z 2300/2400 VRB02KT CAVOK TX27/2312Z TN13/2304Z PROB30 TEMPO 2315/2318 SHRA FEW040TCU SCT045 =
SR / SS: 04:45 / 16:50 UTC (Zagreb 2020-09-23)